Time;durP1;ratioP1;P1;durP2;ratioP2;P2;SDS_P1;SDS_P2;PMS_P1;PMS_P2;Temp;Humidity;BMP_temperature;BMP_pressure;BME280_temperature;BME280_humidity;BME280_pressure;Samples;Min_cycle;Max_cycle;Signal;HPM_P1;HPM_P2
2023/07/26 00:23:47;;;;;;;8.57;6.53;;;12.70;99.90;;;;;;470430;253;26689;-80
2023/07/26 00:25:49;;;;;;;9.43;7.10;;;12.80;99.90;;;;;;470476;252;28387;-81
2023/07/26 00:27:50;;;;;;;9.57;7.50;;;12.70;99.90;;;;;;470439;252;28374;-79
2023/07/26 00:29:51;;;;;;;9.03;7.57;;;12.70;99.90;;;;;;470309;252;28183;-79
2023/07/26 00:31:52;;;;;;;8.40;6.57;;;12.70;99.90;;;;;;470380;252;28267;-81
2023/07/26 00:33:54;;;;;;;13.10;6.87;;;12.70;99.90;;;;;;470369;252;28362;-79
2023/07/26 00:35:55;;;;;;;10.63;6.27;;;12.70;99.90;;;;;;470225;253;28783;-82
2023/07/26 00:37:56;;;;;;;10.10;8.07;;;12.60;99.90;;;;;;470224;253;28946;-80
2023/07/26 00:39:57;;;;;;;7.10;6.40;;;12.50;99.90;;;;;;470175;252;28996;-78
2023/07/26 00:41:59;;;;;;;9.70;6.80;;;12.50;99.90;;;;;;470132;252;28288;-81
2023/07/26 00:44:00;;;;;;;7.60;6.77;;;12.50;99.90;;;;;;470244;252;28421;-80
2023/07/26 00:46:01;;;;;;;9.43;7.10;;;12.50;99.90;;;;;;470275;252;28279;-81
2023/07/26 00:48:02;;;;;;;14.23;8.70;;;12.40;99.90;;;;;;470236;252;28855;-79
2023/07/26 00:50:04;;;;;;;7.80;7.10;;;12.30;99.90;;;;;;470293;252;28459;-80
2023/07/26 00:52:05;;;;;;;8.80;6.80;;;12.30;99.90;;;;;;470234;252;28335;-80
2023/07/26 00:54:06;;;;;;;10.40;7.40;;;12.30;99.90;;;;;;470090;252;28710;-82
2023/07/26 00:56:09;;;;;;;7.43;6.63;;;12.30;99.90;;;;;;470040;252;28280;-80
2023/07/26 00:58:10;;;;;;;7.60;6.57;;;;;;;;;;470056;253;28812;-82
2023/07/26 01:00:11;;;;;;;10.00;6.57;;;12.30;99.90;;;;;;470065;253;26856;-82
2023/07/26 01:02:12;;;;;;;10.30;7.90;;;12.30;99.90;;;;;;470190;252;28351;-78
2023/07/26 01:04:14;;;;;;;10.00;7.47;;;12.20;99.90;;;;;;470093;253;28392;-82
2023/07/26 01:06:15;;;;;;;7.50;6.70;;;12.10;99.90;;;;;;470086;252;28958;-81
2023/07/26 01:08:16;;;;;;;8.30;7.50;;;12.20;99.90;;;;;;470237;252;28884;-80
2023/07/26 01:10:17;;;;;;;8.73;7.60;;;12.10;99.90;;;;;;470177;252;28731;-81
2023/07/26 01:12:19;;;;;;;13.87;6.67;;;12.00;99.90;;;;;;470220;252;28886;-81
2023/07/26 01:14:20;;;;;;;7.53;6.47;;;12.00;99.90;;;;;;470023;252;28511;-82
2023/07/26 01:16:22;;;;;;;7.97;6.33;;;;;;;;;;470067;252;28184;-79
2023/07/26 01:18:23;;;;;;;8.90;7.43;;;12.00;99.90;;;;;;470126;253;26973;-81
2023/07/26 01:20:25;;;;;;;6.90;6.20;;;12.00;99.90;;;;;;470239;252;28437;-79
2023/07/26 01:22:26;;;;;;;9.30;7.07;;;11.90;99.90;;;;;;470069;252;28593;-79
2023/07/26 01:24:27;;;;;;;9.00;6.80;;;11.90;99.90;;;;;;470045;252;28645;-79
2023/07/26 01:26:29;;;;;;;9.40;6.77;;;12.00;99.90;;;;;;470020;252;28666;-79
2023/07/26 01:28:30;;;;;;;7.17;6.47;;;11.90;99.90;;;;;;470092;253;28920;-79
2023/07/26 01:30:31;;;;;;;7.87;7.17;;;11.90;99.90;;;;;;470049;252;28654;-80
2023/07/26 01:32:32;;;;;;;6.60;6.00;;;11.90;99.90;;;;;;470088;252;28372;-82
2023/07/26 01:34:34;;;;;;;7.53;6.20;;;11.80;99.90;;;;;;470115;253;28103;-81
2023/07/26 01:36:35;;;;;;;7.27;6.67;;;11.80;99.90;;;;;;470158;252;28558;-79
2023/07/26 01:38:36;;;;;;;9.30;7.73;;;11.80;99.90;;;;;;470063;252;28826;-78
2023/07/26 01:40:37;;;;;;;8.10;7.23;;;11.80;99.90;;;;;;470063;252;28650;-79
2023/07/26 01:42:39;;;;;;;8.90;7.23;;;11.70;99.90;;;;;;470042;252;28904;-81
2023/07/26 01:44:41;;;;;;;9.93;7.77;;;;;;;;;;470037;252;29225;-80
2023/07/26 01:46:42;;;;;;;8.40;7.27;;;11.70;99.90;;;;;;470040;253;27365;-79
2023/07/26 01:48:43;;;;;;;7.60;6.90;;;11.60;99.90;;;;;;469989;252;28152;-78
2023/07/26 01:50:45;;;;;;;8.10;7.30;;;11.60;99.90;;;;;;470089;252;28661;-81
2023/07/26 01:52:46;;;;;;;9.20;6.90;;;11.60;99.90;;;;;;470140;252;28072;-79
2023/07/26 01:54:47;;;;;;;7.10;6.23;;;11.70;99.90;;;;;;470059;252;28422;-78
2023/07/26 01:56:48;;;;;;;7.77;6.97;;;11.70;99.90;;;;;;470061;252;28753;-80
2023/07/26 01:58:50;;;;;;;6.00;5.47;;;11.70;99.90;;;;;;470017;249;28599;-78
2023/07/26 02:00:51;;;;;;;7.43;6.17;;;11.80;99.90;;;;;;470054;252;28940;-80
2023/07/26 02:02:53;;;;;;;6.30;5.73;;;11.80;99.90;;;;;;470085;252;28070;-82
2023/07/26 02:04:53;;;;;;;7.27;6.57;;;11.80;99.90;;;;;;470081;252;28091;-80
2023/07/26 02:06:55;;;;;;;7.53;6.57;;;11.90;99.90;;;;;;470073;252;28658;-79
2023/07/26 02:08:56;;;;;;;6.70;6.10;;;11.90;99.90;;;;;;470011;252;28151;-81
2023/07/26 02:10:57;;;;;;;8.03;7.23;;;11.90;99.90;;;;;;470036;249;28804;-79
2023/07/26 02:12:58;;;;;;;8.13;6.53;;;11.90;99.90;;;;;;470206;252;28153;-81
2023/07/26 02:15:00;;;;;;;10.20;7.50;;;12.00;99.90;;;;;;470004;252;28542;-80
2023/07/26 02:17:01;;;;;;;9.40;8.40;;;11.90;99.90;;;;;;470177;252;28588;-81
2023/07/26 02:19:03;;;;;;;9.10;7.93;;;11.90;99.90;;;;;;470183;252;28386;-80
2023/07/26 02:21:04;;;;;;;8.37;7.57;;;11.90;99.90;;;;;;470083;252;28061;-77
2023/07/26 02:23:05;;;;;;;9.50;8.50;;;11.90;99.90;;;;;;470061;253;28334;-81
2023/07/26 02:25:06;;;;;;;10.50;7.77;;;11.90;99.90;;;;;;470175;252;28278;-79
2023/07/26 02:27:07;;;;;;;8.87;8.03;;;11.80;99.90;;;;;;470006;252;28120;-78
2023/07/26 02:29:09;;;;;;;10.07;9.07;;;11.80;99.90;;;;;;470039;252;28599;-79
2023/07/26 02:31:10;;;;;;;9.83;8.83;;;11.80;99.90;;;;;;470026;252;28884;-79
2023/07/26 02:33:11;;;;;;;8.70;7.90;;;11.80;99.90;;;;;;470017;253;28505;-79
2023/07/26 02:35:12;;;;;;;8.80;7.90;;;11.70;99.90;;;;;;470163;252;28928;-81
2023/07/26 02:37:14;;;;;;;9.30;8.10;;;11.70;99.90;;;;;;470152;253;28965;-80
2023/07/26 02:39:16;;;;;;;13.83;10.97;;;;;;;;;;470251;249;28390;-77
2023/07/26 02:41:17;;;;;;;9.73;8.50;;;11.70;99.90;;;;;;470154;253;27230;-82
2023/07/26 02:43:19;;;;;;;12.10;8.37;;;11.60;99.90;;;;;;470189;252;29224;-80
2023/07/26 02:45:20;;;;;;;9.30;8.33;;;11.70;99.90;;;;;;470118;252;29236;-79
2023/07/26 02:47:21;;;;;;;10.50;7.97;;;11.70;99.90;;;;;;470199;252;28736;-79
2023/07/26 02:49:22;;;;;;;10.50;8.57;;;11.80;99.90;;;;;;470190;252;28123;-81
2023/07/26 02:51:24;;;;;;;10.77;8.60;;;11.80;99.90;;;;;;470149;252;28212;-80
2023/07/26 02:53:25;;;;;;;10.40;8.30;;;11.80;99.90;;;;;;470142;253;28788;-81
2023/07/26 02:55:27;;;;;;;9.53;8.53;;;;;;;;;;470197;252;28391;-82
2023/07/26 02:57:28;;;;;;;9.17;8.07;;;11.80;99.90;;;;;;470156;253;27440;-78
2023/07/26 02:59:30;;;;;;;9.63;8.73;;;11.90;99.90;;;;;;470185;252;28988;-81
2023/07/26 03:01:31;;;;;;;8.37;7.47;;;11.90;99.90;;;;;;470168;252;28453;-77
2023/07/26 03:03:32;;;;;;;10.90;9.50;;;11.90;99.90;;;;;;470239;252;28469;-80
2023/07/26 03:05:33;;;;;;;14.50;8.07;;;11.90;99.90;;;;;;470243;252;28006;-80
2023/07/26 03:07:35;;;;;;;9.90;9.00;;;11.90;99.90;;;;;;470034;252;28580;-80
2023/07/26 03:09:36;;;;;;;9.60;8.70;;;11.90;99.90;;;;;;470141;252;28694;-82
2023/07/26 03:11:37;;;;;;;12.77;8.87;;;12.00;99.90;;;;;;470171;252;28915;-77
2023/07/26 03:13:38;;;;;;;10.40;8.47;;;11.90;99.90;;;;;;470209;252;29159;-83
2023/07/26 03:15:40;;;;;;;12.17;10.20;;;11.90;99.90;;;;;;470340;253;28586;-81
2023/07/26 03:17:41;;;;;;;13.77;9.60;;;11.90;99.90;;;;;;470288;252;28568;-78
2023/07/26 03:19:42;;;;;;;9.73;8.63;;;11.90;99.90;;;;;;470194;252;28117;-79
2023/07/26 03:21:44;;;;;;;9.90;9.00;;;11.80;99.90;;;;;;470208;252;28916;-79
2023/07/26 03:23:45;;;;;;;10.57;9.47;;;11.80;99.90;;;;;;470148;253;28550;-80
2023/07/26 03:25:46;;;;;;;11.50;9.27;;;11.70;99.90;;;;;;470067;252;28007;-79
2023/07/26 03:27:47;;;;;;;12.00;9.90;;;11.70;99.90;;;;;;470082;252;28047;-79
2023/07/26 03:29:49;;;;;;;10.77;9.77;;;11.70;99.90;;;;;;470130;253;28404;-80
2023/07/26 03:31:50;;;;;;;10.50;9.40;;;11.80;99.90;;;;;;470228;252;28927;-80
2023/07/26 03:33:51;;;;;;;10.53;9.43;;;11.80;99.90;;;;;;470101;253;28566;-78
2023/07/26 03:35:52;;;;;;;13.00;9.90;;;11.80;99.90;;;;;;470170;252;28598;-80
2023/07/26 03:37:54;;;;;;;10.63;9.53;;;11.80;99.90;;;;;;470247;252;28534;-79
2023/07/26 03:39:55;;;;;;;12.97;9.80;;;11.80;99.90;;;;;;470216;253;28534;-81
2023/07/26 03:41:56;;;;;;;12.20;9.57;;;11.80;99.90;;;;;;470161;252;29086;-79
2023/07/26 03:43:57;;;;;;;11.70;8.80;;;11.80;99.90;;;;;;470196;252;28759;-79
2023/07/26 03:45:59;;;;;;;16.20;10.73;;;11.90;99.90;;;;;;470238;253;28418;-81
2023/07/26 03:48:00;;;;;;;11.20;10.00;;;11.80;99.90;;;;;;470212;252;28660;-79
2023/07/26 03:50:01;;;;;;;13.13;11.63;;;11.80;99.90;;;;;;470201;252;28625;-80
2023/07/26 03:52:04;;;;;;;14.70;12.90;;;11.80;99.90;;;;;;470239;252;28893;-80
2023/07/26 03:54:04;;;;;;;11.83;10.57;;;11.90;99.90;;;;;;470079;253;28328;-79
2023/07/26 03:56:05;;;;;;;11.33;10.13;;;11.80;99.90;;;;;;470198;252;28414;-81
2023/07/26 03:58:06;;;;;;;16.50;11.33;;;11.80;99.90;;;;;;470164;252;28615;-78
2023/07/26 04:00:07;;;;;;;13.90;11.20;;;11.90;99.90;;;;;;470069;252;28594;-79
2023/07/26 04:02:09;;;;;;;14.60;11.00;;;11.90;99.90;;;;;;470189;252;28462;-79
2023/07/26 04:04:10;;;;;;;11.83;10.63;;;11.90;99.90;;;;;;470231;252;28919;-78
2023/07/26 04:06:11;;;;;;;14.97;10.67;;;11.90;99.90;;;;;;470264;252;28750;-80
2023/07/26 04:08:12;;;;;;;12.27;10.90;;;11.90;99.90;;;;;;470216;252;28220;-78
2023/07/26 04:10:14;;;;;;;13.17;11.00;;;12.00;99.90;;;;;;470153;253;28294;-81
2023/07/26 04:12:15;;;;;;;14.40;10.77;;;12.00;99.90;;;;;;470143;252;28176;-80
2023/07/26 04:14:16;;;;;;;12.50;11.20;;;12.00;99.90;;;;;;470337;253;28966;-79
2023/07/26 04:16:19;;;;;;;11.43;9.93;;;;;;;;;;470224;252;28686;-82
2023/07/26 04:18:20;;;;;;;13.43;9.80;;;11.90;99.90;;;;;;470237;253;27346;-80
2023/07/26 04:20:21;;;;;;;12.10;10.40;;;11.90;99.90;;;;;;470184;252;28291;-82
2023/07/26 04:22:22;;;;;;;18.17;11.83;;;12.00;99.90;;;;;;470188;252;29041;-79
2023/07/26 04:24:24;;;;;;;13.83;11.23;;;12.00;99.90;;;;;;470276;252;28616;-81
2023/07/26 04:26:25;;;;;;;14.93;10.50;;;12.00;99.90;;;;;;470182;253;28628;-79
2023/07/26 04:28:26;;;;;;;12.63;11.43;;;12.00;99.90;;;;;;470154;252;29589;-79
2023/07/26 04:30:28;;;;;;;13.53;12.13;;;12.00;99.90;;;;;;470296;252;29384;-79
2023/07/26 04:32:29;;;;;;;14.43;12.93;;;12.00;99.90;;;;;;470303;253;28554;-80
2023/07/26 04:34:30;;;;;;;12.20;11.10;;;12.00;99.90;;;;;;470124;252;28658;-81
2023/07/26 04:36:32;;;;;;;11.77;10.50;;;;;;;;;;469925;252;28695;-79
2023/07/26 04:38:34;;;;;;;12.33;11.10;;;11.90;99.90;;;;;;469913;253;26678;-79
2023/07/26 04:40:35;;;;;;;11.67;10.47;;;11.90;99.90;;;;;;469876;252;28464;-79
2023/07/26 04:42:36;;;;;;;11.20;10.10;;;11.90;99.90;;;;;;469847;252;28211;-81
2023/07/26 04:44:38;;;;;;;11.83;9.13;;;11.90;99.90;;;;;;469881;252;28969;-78
2023/07/26 04:46:39;;;;;;;10.97;8.80;;;11.90;99.90;;;;;;469916;252;28511;-78
2023/07/26 04:48:40;;;;;;;11.20;10.00;;;12.00;99.90;;;;;;469929;252;28599;-80
2023/07/26 04:50:41;;;;;;;10.50;8.87;;;12.00;99.90;;;;;;469932;252;29176;-79
2023/07/26 04:52:42;;;;;;;9.93;8.93;;;12.00;99.90;;;;;;470006;253;28691;-81
2023/07/26 04:54:44;;;;;;;13.27;9.90;;;12.00;99.90;;;;;;469941;252;28628;-80
2023/07/26 04:56:45;;;;;;;10.57;9.50;;;12.00;99.90;;;;;;469946;252;28558;-80
2023/07/26 04:58:46;;;;;;;11.03;9.87;;;12.10;99.90;;;;;;469984;252;28522;-80
2023/07/26 05:00:48;;;;;;;13.23;9.10;;;12.00;99.90;;;;;;469876;252;28233;-79
2023/07/26 05:02:49;;;;;;;8.50;7.67;;;12.00;99.90;;;;;;469817;252;28837;-80
2023/07/26 05:04:50;;;;;;;9.00;8.10;;;12.10;99.90;;;;;;469767;252;28999;-80
2023/07/26 05:06:51;;;;;;;9.30;8.40;;;12.10;99.90;;;;;;469859;253;28955;-78
2023/07/26 05:08:52;;;;;;;10.47;8.30;;;12.10;99.90;;;;;;469776;253;28396;-78
2023/07/26 05:10:54;;;;;;;8.83;8.03;;;12.10;99.90;;;;;;469729;252;28575;-78
2023/07/26 05:12:55;;;;;;;9.30;8.40;;;12.10;99.90;;;;;;469788;252;28761;-79
2023/07/26 05:14:56;;;;;;;8.90;8.00;;;12.10;99.90;;;;;;469796;252;28422;-79
2023/07/26 05:16:57;;;;;;;10.07;9.07;;;12.20;99.90;;;;;;469911;252;28429;-79
2023/07/26 05:18:59;;;;;;;8.13;7.30;;;12.20;99.90;;;;;;469953;252;28179;-80
2023/07/26 05:21:00;;;;;;;8.10;6.80;;;12.10;99.90;;;;;;469920;252;28077;-79
2023/07/26 05:23:01;;;;;;;8.20;7.40;;;12.10;99.90;;;;;;469981;252;28171;-81
2023/07/26 05:25:03;;;;;;;6.93;6.30;;;12.10;99.90;;;;;;469887;252;28455;-78
2023/07/26 05:27:04;;;;;;;7.80;6.50;;;12.20;99.90;;;;;;469974;252;28830;-80
2023/07/26 05:29:05;;;;;;;9.00;8.10;;;12.10;99.90;;;;;;470109;252;28502;-82
2023/07/26 05:31:06;;;;;;;11.10;6.70;;;12.10;99.90;;;;;;470145;252;28929;-80
2023/07/26 05:33:07;;;;;;;8.00;7.23;;;12.10;99.90;;;;;;470215;252;28822;-81
2023/07/26 05:35:11;;;;;;;8.83;7.63;;;12.10;99.90;;;;;;470233;252;29429;-81
2023/07/26 05:37:10;;;;;;;7.83;6.80;;;12.10;99.90;;;;;;470032;253;28518;-78
2023/07/26 05:39:12;;;;;;;9.90;6.97;;;12.20;99.90;;;;;;470195;253;28405;-80
2023/07/26 05:41:14;;;;;;;6.70;6.00;;;;;;;;;;469971;253;28426;-80
2023/07/26 05:43:15;;;;;;;10.00;6.97;;;12.20;99.90;;;;;;470215;253;26713;-79
2023/07/26 05:45:16;;;;;;;6.60;6.00;;;12.30;99.90;;;;;;470139;249;28666;-78
2023/07/26 05:47:18;;;;;;;7.47;6.67;;;12.30;99.90;;;;;;469972;253;28618;-80
2023/07/26 05:49:19;;;;;;;6.70;6.20;;;12.40;99.90;;;;;;470166;252;28868;-79
2023/07/26 05:51:20;;;;;;;8.27;6.77;;;12.40;99.90;;;;;;470123;253;28307;-81
2023/07/26 05:53:21;;;;;;;6.53;5.93;;;12.50;99.90;;;;;;470065;252;28243;-79
2023/07/26 05:55:22;;;;;;;7.90;6.30;;;12.60;99.90;;;;;;470184;252;28981;-81
2023/07/26 05:57:24;;;;;;;7.03;6.43;;;12.60;99.90;;;;;;470068;252;28359;-82
2023/07/26 05:59:25;;;;;;;8.00;7.20;;;12.60;99.90;;;;;;470229;252;28295;-80
2023/07/26 06:01:26;;;;;;;7.40;6.33;;;12.70;99.90;;;;;;470178;252;28496;-80
2023/07/26 06:03:27;;;;;;;6.60;6.00;;;12.70;99.90;;;;;;470194;252;28246;-81
2023/07/26 06:05:29;;;;;;;7.60;6.80;;;12.80;99.90;;;;;;470179;253;28307;-81
2023/07/26 06:07:30;;;;;;;7.67;6.57;;;12.90;99.90;;;;;;470298;252;28361;-80
2023/07/26 06:09:31;;;;;;;7.27;5.93;;;12.90;99.90;;;;;;470248;253;28971;-81
2023/07/26 06:11:32;;;;;;;9.57;6.33;;;13.00;99.90;;;;;;470324;252;28793;-79
2023/07/26 06:13:34;;;;;;;6.33;5.73;;;13.00;99.90;;;;;;470497;252;28726;-80
2023/07/26 06:15:35;;;;;;;6.20;5.57;;;13.10;99.90;;;;;;470530;252;29020;-78
2023/07/26 06:17:36;;;;;;;6.40;5.20;;;13.20;99.90;;;;;;470528;253;28517;-82
2023/07/26 06:19:37;;;;;;;6.60;6.00;;;13.30;99.90;;;;;;470582;252;28283;-79
2023/07/26 06:21:39;;;;;;;6.20;5.70;;;13.30;99.90;;;;;;470529;252;28471;-82
2023/07/26 06:23:40;;;;;;;5.70;5.20;;;13.40;99.90;;;;;;470482;253;28372;-80
2023/07/26 06:25:41;;;;;;;8.63;5.90;;;13.50;99.90;;;;;;470496;252;28621;-81
2023/07/26 06:27:42;;;;;;;7.43;6.30;;;13.50;99.90;;;;;;470625;252;28544;-82
2023/07/26 06:29:44;;;;;;;7.10;6.40;;;13.50;99.90;;;;;;470599;252;28696;-81
2023/07/26 06:31:45;;;;;;;6.30;5.80;;;13.60;99.90;;;;;;470672;252;28904;-80
2023/07/26 06:33:46;;;;;;;10.40;8.30;;;13.70;99.90;;;;;;470648;252;29487;-81
2023/07/26 06:35:47;;;;;;;6.67;6.10;;;13.70;99.90;;;;;;470585;253;29481;-81
2023/07/26 06:37:49;;;;;;;8.17;7.30;;;13.70;99.90;;;;;;470625;252;28907;-83
2023/07/26 06:39:50;;;;;;;7.73;6.40;;;13.80;99.90;;;;;;470688;253;28969;-80
2023/07/26 06:41:51;;;;;;;8.27;6.70;;;13.80;99.90;;;;;;470661;252;28481;-81
2023/07/26 06:43:52;;;;;;;10.40;7.93;;;13.80;99.90;;;;;;470670;252;28917;-81
2023/07/26 06:45:54;;;;;;;9.00;8.10;;;13.70;99.90;;;;;;470728;252;28915;-82
2023/07/26 06:47:55;;;;;;;9.00;7.70;;;13.70;99.90;;;;;;470707;252;28371;-83
2023/07/26 06:49:56;;;;;;;12.90;8.20;;;13.80;99.90;;;;;;470630;252;28944;-81
2023/07/26 06:51:58;;;;;;;7.60;6.00;;;13.90;99.90;;;;;;470672;252;29036;-83
2023/07/26 06:53:59;;;;;;;7.13;6.20;;;13.90;99.90;;;;;;470659;252;28962;-82
2023/07/26 06:56:00;;;;;;;7.20;6.60;;;14.00;99.90;;;;;;470741;253;28938;-82
2023/07/26 06:58:01;;;;;;;9.70;8.70;;;14.10;99.90;;;;;;470648;252;29052;-82
2023/07/26 07:00:06;;;;;;;11.83;7.70;;;13.90;99.90;;;;;;470701;253;29471;-80
2023/07/26 07:02:04;;;;;;;7.90;7.10;;;13.80;99.90;;;;;;470391;253;28917;-83
2023/07/26 07:04:05;;;;;;;9.23;8.33;;;13.90;99.90;;;;;;470621;252;28968;-82
2023/07/26 07:06:06;;;;;;;12.67;8.43;;;13.80;99.90;;;;;;470678;252;28972;-79
2023/07/26 07:08:08;;;;;;;8.53;7.63;;;13.80;99.90;;;;;;470648;252;28996;-80
2023/07/26 07:10:09;;;;;;;9.23;7.53;;;13.80;99.90;;;;;;470641;252;28607;-83
2023/07/26 07:12:10;;;;;;;10.90;8.57;;;13.80;99.90;;;;;;470644;252;29022;-80
2023/07/26 07:14:11;;;;;;;7.60;6.80;;;13.80;99.90;;;;;;470666;253;28592;-83
2023/07/26 07:16:13;;;;;;;10.73;7.30;;;13.90;99.90;;;;;;470661;252;28556;-81
2023/07/26 07:18:14;;;;;;;10.33;7.10;;;13.90;99.90;;;;;;470686;252;29062;-83
2023/07/26 07:20:15;;;;;;;8.10;6.83;;;14.10;99.90;;;;;;470653;249;29417;-83
2023/07/26 07:22:17;;;;;;;8.87;5.47;;;14.20;99.90;;;;;;470726;252;29641;-80
2023/07/26 07:24:18;;;;;;;5.93;5.33;;;14.40;99.90;;;;;;470737;252;28932;-81
2023/07/26 07:26:19;;;;;;;6.47;5.73;;;14.50;99.90;;;;;;470745;252;28921;-82
2023/07/26 07:28:20;;;;;;;5.87;5.00;;;14.40;99.90;;;;;;470752;252;28971;-82
2023/07/26 07:30:21;;;;;;;7.37;6.67;;;14.50;99.90;;;;;;470767;252;28989;-81
2023/07/26 07:32:23;;;;;;;6.50;5.90;;;14.50;99.90;;;;;;470735;252;29000;-83
2023/07/26 07:34:24;;;;;;;7.50;6.40;;;14.50;99.90;;;;;;470648;252;28927;-81
2023/07/26 07:36:25;;;;;;;6.10;5.50;;;14.50;99.90;;;;;;470690;252;28989;-83
2023/07/26 07:38:26;;;;;;;6.47;5.60;;;14.70;99.90;;;;;;470745;252;28974;-81
2023/07/26 07:40:28;;;;;;;6.83;6.13;;;14.70;99.90;;;;;;470773;252;28899;-82
2023/07/26 07:42:29;;;;;;;5.63;5.00;;;14.80;99.90;;;;;;470681;252;29466;-80
2023/07/26 07:44:30;;;;;;;8.30;5.23;;;14.90;99.90;;;;;;470680;252;29392;-81
2023/07/26 07:46:32;;;;;;;6.37;5.77;;;14.70;99.90;;;;;;470636;252;29387;-78
2023/07/26 07:48:33;;;;;;;6.60;5.50;;;14.80;99.90;;;;;;470666;252;28895;-82
2023/07/26 07:50:34;;;;;;;5.77;5.27;;;15.00;99.90;;;;;;470634;253;28875;-80
2023/07/26 07:52:35;;;;;;;10.30;6.07;;;15.00;99.90;;;;;;470665;252;28942;-77
2023/07/26 07:54:36;;;;;;;5.83;5.33;;;15.20;99.90;;;;;;470736;252;28961;-83
2023/07/26 07:56:38;;;;;;;6.20;5.60;;;15.10;99.90;;;;;;470600;252;28948;-83
2023/07/26 07:58:39;;;;;;;5.73;5.23;;;15.10;99.90;;;;;;470577;252;28915;-82
2023/07/26 08:00:40;;;;;;;9.80;6.13;;;15.00;99.90;;;;;;470611;252;29001;-84
2023/07/26 08:02:41;;;;;;;6.80;5.23;;;14.80;99.90;;;;;;470636;252;29019;-81
2023/07/26 08:04:43;;;;;;;5.67;4.93;;;14.90;99.90;;;;;;470687;252;28912;-82
2023/07/26 08:06:44;;;;;;;5.10;4.30;;;14.80;99.90;;;;;;470630;252;29380;-85
2023/07/26 08:08:45;;;;;;;9.43;5.90;;;14.80;99.90;;;;;;470621;252;30150;-82
2023/07/26 08:10:46;;;;;;;4.97;4.50;;;14.80;99.90;;;;;;470705;253;29456;-81
2023/07/26 08:12:48;;;;;;;6.90;5.07;;;14.90;99.90;;;;;;470653;252;29461;-80
2023/07/26 08:14:49;;;;;;;5.30;4.80;;;14.90;99.90;;;;;;470633;252;28908;-81
2023/07/26 08:16:50;;;;;;;5.53;5.03;;;15.00;99.90;;;;;;470562;252;28911;-81
2023/07/26 08:18:51;;;;;;;6.20;4.63;;;15.30;99.90;;;;;;470629;253;28910;-82
2023/07/26 08:20:53;;;;;;;7.70;5.17;;;15.50;99.90;;;;;;470637;252;28917;-80
2023/07/26 08:22:54;;;;;;;6.30;4.17;;;15.50;99.90;;;;;;470610;252;28933;-80
2023/07/26 08:24:55;;;;;;;6.80;4.23;;;15.70;99.90;;;;;;470490;252;28911;-81
2023/07/26 08:26:56;;;;;;;7.93;4.33;;;15.80;99.90;;;;;;470611;252;29019;-82
2023/07/26 08:28:58;;;;;;;5.00;4.30;;;15.90;99.90;;;;;;470604;252;28935;-83
2023/07/26 08:30:59;;;;;;;5.27;4.23;;;15.90;99.90;;;;;;470601;252;28988;-82
2023/07/26 08:33:00;;;;;;;4.53;3.63;;;16.20;99.90;;;;;;470576;252;29393;-81
2023/07/26 08:35:01;;;;;;;6.43;4.00;;;16.50;99.90;;;;;;470618;249;29467;-82
2023/07/26 08:37:03;;;;;;;7.00;4.20;;;16.40;99.90;;;;;;470567;252;29382;-81
2023/07/26 08:39:04;;;;;;;5.77;4.20;;;16.30;99.90;;;;;;470596;253;29029;-82
2023/07/26 08:41:06;;;;;;;5.53;4.20;;;16.10;99.90;;;;;;470494;252;28893;-81
2023/07/26 08:43:06;;;;;;;4.33;3.67;;;16.00;99.90;;;;;;470492;252;28975;-80
2023/07/26 08:45:08;;;;;;;7.00;3.63;;;16.00;99.90;;;;;;470497;252;28933;-80
2023/07/26 08:47:09;;;;;;;6.80;3.57;;;16.20;99.90;;;;;;470367;252;28956;-82
2023/07/26 08:49:10;;;;;;;3.73;3.40;;;16.30;99.90;;;;;;470416;252;28944;-82
2023/07/26 08:51:11;;;;;;;4.33;3.70;;;16.20;99.90;;;;;;470399;252;28913;-85
2023/07/26 08:53:13;;;;;;;4.00;3.33;;;16.30;99.90;;;;;;470382;253;28959;-82
2023/07/26 08:55:14;;;;;;;3.70;3.30;;;16.40;99.90;;;;;;470421;252;28911;-81
2023/07/26 08:57:16;;;;;;;3.50;3.20;;;16.60;99.90;;;;;;470407;252;29431;-82
2023/07/26 08:59:16;;;;;;;3.97;3.43;;;16.80;99.90;;;;;;470361;252;29524;-82
2023/07/26 09:01:18;;;;;;;7.33;3.10;;;16.70;99.90;;;;;;470282;252;29429;-81
2023/07/26 09:03:19;;;;;;;7.83;3.50;;;16.70;99.90;;;;;;470241;252;28913;-81
2023/07/26 09:05:20;;;;;;;3.83;3.53;;;16.80;99.90;;;;;;470204;252;28915;-81
2023/07/26 09:07:21;;;;;;;3.47;3.23;;;16.90;99.90;;;;;;470153;252;29016;-85
2023/07/26 09:09:23;;;;;;;5.23;3.50;;;16.80;99.90;;;;;;470159;252;28935;-82
2023/07/26 09:11:24;;;;;;;5.97;3.30;;;16.70;99.90;;;;;;470129;252;28917;-84
2023/07/26 09:13:25;;;;;;;5.33;3.23;;;16.80;99.90;;;;;;470136;253;28908;-81
2023/07/26 09:15:26;;;;;;;4.00;3.50;;;16.80;99.90;;;;;;470094;253;28951;-83
2023/07/26 09:17:28;;;;;;;3.70;3.07;;;17.00;99.90;;;;;;469928;252;28901;-83
2023/07/26 09:19:29;;;;;;;7.03;4.30;;;17.10;99.90;;;;;;470011;252;28833;-81
2023/07/26 09:21:30;;;;;;;3.60;3.30;;;17.00;99.90;;;;;;469974;252;29544;-81
2023/07/26 09:23:31;;;;;;;3.77;2.93;;;16.90;99.90;;;;;;469920;252;29420;-80
2023/07/26 09:25:33;;;;;;;3.40;3.07;;;17.00;99.90;;;;;;469910;252;30044;-84
2023/07/26 09:27:34;;;;;;;5.13;3.47;;;17.00;99.90;;;;;;469931;252;28836;-82
2023/07/26 09:29:35;;;;;;;3.97;3.33;;;16.90;99.90;;;;;;470033;252;28945;-81
2023/07/26 09:31:38;;;;;;;4.83;3.47;;;16.40;99.90;;;;;;470009;252;28890;-83
2023/07/26 09:33:38;;;;;;;3.60;3.00;;;16.30;99.90;;;;;;469760;253;28808;-83
2023/07/26 09:35:39;;;;;;;5.37;2.90;;;16.30;99.90;;;;;;468972;252;36672;-83
2023/07/26 09:37:40;;;;;;;6.93;3.33;;;16.40;99.90;;;;;;469872;252;27521;-83
2023/07/26 09:39:41;;;;;;;3.50;3.20;;;16.50;99.90;;;;;;469842;252;28861;-80
2023/07/26 09:41:45;;;;;;;4.27;3.47;;;16.70;99.90;;;;;;469847;253;28821;-83
2023/07/26 09:43:44;;;;;;;6.20;3.23;;;16.90;99.90;;;;;;469804;253;28814;-82
2023/07/26 09:45:45;;;;;;;4.30;2.70;;;17.00;99.90;;;;;;469770;252;29591;-82
2023/07/26 09:47:47;;;;;;;3.37;3.00;;;17.10;99.90;;;;;;469811;249;29319;-83
2023/07/26 09:49:48;;;;;;;4.80;3.30;;;17.20;99.90;;;;;;469688;253;29415;-81
2023/07/26 09:51:53;;;;;;;4.10;2.97;;;17.10;99.90;;;;;;469694;252;28809;-82
2023/07/26 09:53:50;;;;;;;4.37;2.90;;;17.00;99.90;;;;;;469315;253;28920;-81
2023/07/26 09:55:51;;;;;;;3.63;3.33;;;16.90;99.90;;;;;;469668;252;28864;-81
2023/07/26 09:57:53;;;;;;;3.83;2.90;;;16.80;99.90;;;;;;469688;252;28817;-81
2023/07/26 09:59:54;;;;;;;6.00;3.10;;;17.10;99.90;;;;;;469679;252;28950;-81
2023/07/26 10:01:56;;;;;;;3.43;3.10;;;17.00;99.90;;;;;;469684;252;28897;-83
2023/07/26 10:03:57;;;;;;;4.03;3.20;;;16.80;99.90;;;;;;469607;252;28956;-82
2023/07/26 10:05:58;;;;;;;4.80;3.40;;;16.70;99.90;;;;;;469723;252;28869;-82
2023/07/26 10:07:59;;;;;;;4.90;2.70;;;16.90;99.90;;;;;;469661;252;28806;-81
2023/07/26 10:10:01;;;;;;;3.80;2.90;;;17.20;99.90;;;;;;469591;252;29428;-82
2023/07/26 10:12:04;;;;;;;4.33;3.07;;;17.20;99.90;;;;;;469561;252;29252;-82
2023/07/26 10:14:06;;;;;;;4.03;3.37;;;17.30;99.90;;;;;;469595;252;29746;-83
2023/07/26 10:16:07;;;;;;;3.23;2.93;;;17.10;99.90;;;;;;469665;253;29442;-81
2023/07/26 10:18:08;;;;;;;5.30;3.07;;;17.10;99.90;;;;;;469602;252;29338;-79
2023/07/26 10:20:09;;;;;;;7.40;3.40;;;17.30;99.90;;;;;;469582;252;29299;-80
2023/07/26 10:22:11;;;;;;;11.30;3.30;;;17.50;99.90;;;;;;469585;252;28853;-82
2023/07/26 10:24:12;;;;;;;4.80;3.20;;;17.50;99.90;;;;;;469492;252;28916;-84
2023/07/26 10:26:13;;;;;;;3.43;3.10;;;17.40;99.90;;;;;;469540;252;28906;-82
2023/07/26 10:28:14;;;;;;;3.47;2.80;;;17.80;99.90;;;;;;469548;252;28837;-81
2023/07/26 10:30:16;;;;;;;4.10;3.70;;;17.80;99.90;;;;;;469610;252;28813;-82
2023/07/26 10:32:17;;;;;;;8.43;2.87;;;17.90;99.90;;;;;;469594;252;28872;-83
2023/07/26 10:34:18;;;;;;;3.50;3.20;;;17.70;99.90;;;;;;469519;252;28853;-81
2023/07/26 10:36:19;;;;;;;5.17;3.00;;;17.70;99.90;;;;;;469637;252;28829;-81
2023/07/26 10:38:21;;;;;;;4.43;3.20;;;17.70;99.90;;;;;;469585;252;29428;-83
2023/07/26 10:40:22;;;;;;;6.33;2.70;;;17.60;99.90;;;;;;469568;253;29369;-83
2023/07/26 10:42:23;;;;;;;4.10;3.10;;;17.50;99.90;;;;;;469552;252;29426;-82
2023/07/26 10:44:24;;;;;;;3.47;2.90;;;17.60;99.90;;;;;;469489;252;29557;-82
2023/07/26 10:46:26;;;;;;;5.40;2.87;;;17.80;99.90;;;;;;469617;252;28960;-81
2023/07/26 10:48:27;;;;;;;4.60;3.10;;;17.90;99.90;;;;;;469521;253;28866;-80
2023/07/26 10:50:28;;;;;;;3.07;2.70;;;17.80;99.90;;;;;;469538;252;28801;-83
2023/07/26 10:52:29;;;;;;;5.10;3.03;;;17.70;99.90;;;;;;469457;252;28848;-80